Airfield :
LOGIN :

Register | Disclaimer

   EN    FR    IT 

 










Legend :    VFR   Marginal VFR   IFR   Intensive IFR   Very Intensive IFR
Visi :
Ceiling :
>= 8 km
>= 3000ft
5 to 8 km
1000 to 3000 ft
1500m to 5 km
500 to 1000 ft
800 to 1500m
200 to 500 ft
< 800m
< 200 ft
Symbols :   Thunderstorms  Fog  Heavy snow  Heavy precipitations  Wind > 20 kt
SIGMETs :     Misc.  Thunderstorms  Icing  Turbulence  Mountain Waves  Volcanic Ashes







- Airport Elevation : 788 ft
- IATA code : DCM
- Download approach charts


LFCK - Castres-Mazamet

CURRENT METAR :
  • 201530Z AUTO VRB03KT 9999 ///TCU 23/12 Q1014 TEMPO 4000 SHRA FEW060CB

EXPIRED METARs :
  • 201500Z AUTO 12005KT 080V170 9999 FEW047/// BKN100/// ///CB 23/11 Q1014 TEMPO 4000 SHRA
  • 201400Z AUTO VRB01KT 9999 FEW039/// SCT064/// ///CB 23/12 Q1015 TEMPO 4000 SHRA
  • 201330Z AUTO 31004KT 260V360 9999 BKN037/// BKN054/// ///CB 22/13 Q1015 TEMPO 4000 SHRA
  • 201300Z AUTO 29006KT 230V340 9999 SCT035/// ///CB 22/14 Q1016 TEMPO 4000 SHRA

TAF TAF LFCK
Valid from the 20 at 15:00 until the 21 at 00:00 UTC


201400Z 2015/2024 VRB03KT 9999 FEW040 SCT045TCU
PROB40
TEMPO 2015/2019 4000 SHRA FEW060CB
No reported NOTAMs for that airfield.



MET'MAP, your aeronautical weather chart ! - Copyright ORBIFLY December 2007 - Disclaimer

ORBIFLY MET'MAP TEAM :

Programming & Development : Alexandra Zaïnal
Concept & Development : Baudouin d'Aumeries
Co-Development & Prog : Marc-Olivier Méhu
Technical & hardware support : Manuel Goepfert

Contact : metmap@orbifly.com




SOURCES & CREDITS :

   NOAA